Time;durP1;ratioP1;P1;durP2;ratioP2;P2;SDS_P1;SDS_P2;PMS_P1;PMS_P2;Temp;Humidity;BMP_temperature;BMP_pressure;BME280_temperature;BME280_humidity;BME280_pressure;Samples;Min_cycle;Max_cycle;Signal;HPM_P1;HPM_P2
2021/12/22 00:01:27;;;;;;;17.85;8.98;;;-0.50;99.90;;;;;;5121314;27;20066;-72
2021/12/22 00:03:53;;;;;;;13.55;10.48;;;-0.40;99.90;;;;;;5139315;27;20150;-73
2021/12/22 00:06:21;;;;;;;11.23;8.40;;;-0.40;99.90;;;;;;5120073;27;20117;-73
2021/12/22 00:08:47;;;;;;;16.67;9.48;;;-0.40;99.90;;;;;;5139153;27;20074;-73
2021/12/22 00:11:13;;;;;;;12.18;9.18;;;-0.50;99.90;;;;;;5115733;27;20132;-73
2021/12/22 00:13:38;;;;;;;11.25;7.75;;;-0.50;99.90;;;;;;5116734;27;20287;-73
2021/12/22 00:16:05;;;;;;;11.35;8.07;;;-0.40;99.90;;;;;;5112065;27;20059;-72
2021/12/22 00:18:31;;;;;;;14.45;9.73;;;-0.40;99.90;;;;;;5109003;27;20043;-73
2021/12/22 00:20:57;;;;;;;11.32;9.60;;;-0.50;99.90;;;;;;5111893;27;20162;-72
2021/12/22 00:23:22;;;;;;;10.98;8.35;;;-0.50;99.90;;;;;;5103000;27;20051;-72
2021/12/22 00:25:48;;;;;;;14.82;10.48;;;-0.60;99.90;;;;;;5108527;27;20730;-72
2021/12/22 00:28:14;;;;;;;14.35;9.20;;;-0.60;99.90;;;;;;5115501;27;20462;-72
2021/12/22 00:30:40;;;;;;;15.13;10.20;;;-0.70;99.90;;;;;;5112838;27;20043;-72
2021/12/22 00:33:07;;;;;;;13.73;10.68;;;-0.70;99.90;;;;;;5114913;27;20042;-72
2021/12/22 00:35:43;;;;;;;16.02;11.07;;;-0.70;99.90;;;;;;5114564;27;20517;-72
2021/12/22 00:38:11;;;;;;;16.15;11.23;;;-0.70;99.90;;;;;;5113019;27;20398;-72
2021/12/22 00:40:38;;;;;;;14.07;8.88;;;-0.70;99.90;;;;;;5115344;27;20212;-72
2021/12/22 00:43:04;;;;;;;17.55;8.48;;;-0.80;99.90;;;;;;5118349;27;20047;-72
2021/12/22 00:45:33;;;;;;;12.95;8.15;;;-0.80;99.90;;;;;;5116675;27;20370;-72
2021/12/22 00:47:58;;;;;;;12.40;8.18;;;-0.80;99.90;;;;;;5117516;27;20116;-72
2021/12/22 00:50:24;;;;;;;11.07;8.88;;;-0.80;99.90;;;;;;5118760;27;20078;-72
2021/12/22 00:52:50;;;;;;;15.18;9.60;;;-0.80;99.90;;;;;;5118308;27;20047;-72
2021/12/22 00:55:19;;;;;;;10.98;8.20;;;-0.80;99.90;;;;;;5118916;27;20051;-72
2021/12/22 00:57:49;;;;;;;10.60;9.10;;;-0.80;99.90;;;;;;5118201;27;20055;-72
2021/12/22 01:00:16;;;;;;;13.10;7.97;;;-0.80;99.90;;;;;;5118010;27;20073;-72
2021/12/22 01:02:43;;;;;;;13.65;10.00;;;-0.80;99.90;;;;;;5114569;27;20046;-72
2021/12/22 01:05:12;;;;;;;8.90;7.90;;;-0.80;99.90;;;;;;5117241;27;20050;-72
2021/12/22 01:07:38;;;;;;;12.65;9.25;;;-0.80;99.90;;;;;;5118869;27;20097;-72
2021/12/22 01:10:05;;;;;;;11.02;8.85;;;-0.80;99.90;;;;;;5121691;27;20059;-73
2021/12/22 01:12:31;;;;;;;11.88;8.68;;;-0.80;99.90;;;;;;5139584;27;20059;-72
2021/12/22 01:14:56;;;;;;;13.50;9.40;;;-0.80;99.90;;;;;;5140559;27;20047;-72
2021/12/22 01:17:22;;;;;;;12.35;8.30;;;-0.70;99.90;;;;;;5121299;27;20063;-72
2021/12/22 01:22:36;;;;;;;13.82;8.18;;;-0.70;99.90;;;;;;5121529;27;20055;-72
2021/12/22 01:25:04;;;;;;;8.50;6.78;;;-0.70;99.90;;;;;;5140671;27;20133;-72
2021/12/22 01:27:35;;;;;;;12.77;8.38;;;-0.70;99.90;;;;;;5121609;27;20095;-71
2021/12/22 01:30:05;;;;;;;10.98;7.65;;;-0.80;99.90;;;;;;5142627;27;20047;-70
2021/12/22 01:32:30;;;;;;;7.78;7.15;;;-0.90;99.90;;;;;;5140199;27;20625;-72
2021/12/22 01:34:56;;;;;;;12.63;9.20;;;-0.90;99.90;;;;;;5139721;27;20043;-71
2021/12/22 01:37:22;;;;;;;10.35;7.75;;;-1.00;99.90;;;;;;5141149;27;20405;-72
2021/12/22 01:39:47;;;;;;;8.75;7.70;;;-0.90;99.90;;;;;;5141461;27;20070;-72
2021/12/22 01:42:13;;;;;;;12.02;9.02;;;-0.90;99.90;;;;;;5140954;27;20054;-72
2021/12/22 01:45:01;;;;;;;11.30;8.95;;;-0.90;99.90;;;;;;5122433;27;20041;-72
2021/12/22 01:50:28;;;;;;;11.52;7.63;;;-0.90;99.90;;;;;;5140877;27;20097;-72
2021/12/22 01:52:54;;;;;;;8.95;7.80;;;-0.90;99.90;;;;;;5141099;27;20058;-72
2021/12/22 01:55:32;;;;;;;14.25;8.95;;;-0.90;99.90;;;;;;5122277;27;20069;-71
2021/12/22 01:58:00;;;;;;;12.68;8.60;;;-0.90;99.90;;;;;;5140733;27;20535;-71
2021/12/22 02:00:27;;;;;;;10.57;7.22;;;-1.00;99.90;;;;;;5141097;27;20051;-72
2021/12/22 02:02:56;;;;;;;11.60;8.48;;;-1.00;99.90;;;;;;5140739;27;20099;-72
2021/12/22 02:05:22;;;;;;;14.63;9.10;;;-1.00;99.90;;;;;;5140266;27;20053;-72
2021/12/22 02:07:49;;;;;;;9.73;7.45;;;-1.00;99.90;;;;;;5121993;27;20038;-72
2021/12/22 02:13:01;;;;;;;11.10;7.00;;;-1.10;99.90;;;;;;5140446;27;20050;-72
2021/12/22 02:15:32;;;;;;;10.27;7.35;;;-1.10;99.90;;;;;;5140247;27;20440;-72
2021/12/22 02:18:00;;;;;;;8.52;6.47;;;-1.10;99.90;;;;;;5121059;27;20126;-72
2021/12/22 02:20:26;;;;;;;10.05;8.30;;;-1.10;99.90;;;;;;5140254;27;20075;-72
2021/12/22 02:22:55;;;;;;;13.80;8.18;;;-1.10;99.90;;;;;;5130456;27;20178;-72
2021/12/22 02:25:30;;;;;;;10.43;7.93;;;-1.00;99.90;;;;;;5122902;27;20111;-72
2021/12/22 02:27:56;;;;;;;7.35;6.55;;;-1.00;99.90;;;;;;5120977;27;20089;-72
2021/12/22 02:30:27;;;;;;;16.65;7.60;;;-1.10;99.90;;;;;;5139284;27;20153;-72
2021/12/22 02:35:28;;;;;;;8.68;7.15;;;-1.10;99.90;;;;;;5140234;27;20058;-72
2021/12/22 02:37:54;;;;;;;9.75;7.57;;;-1.10;99.90;;;;;;5143758;27;20046;-72
2021/12/22 02:40:26;;;;;;;11.00;7.88;;;-1.10;99.90;;;;;;5139661;27;20202;-72
2021/12/22 02:42:54;;;;;;;8.45;7.32;;;-1.20;99.90;;;;;;5119725;27;20829;-72
2021/12/22 02:45:21;;;;;;;13.15;7.35;;;-1.20;99.90;;;;;;5120130;27;20099;-72
2021/12/22 02:47:47;;;;;;;9.07;7.50;;;-1.30;99.90;;;;;;5127651;27;20062;-72
2021/12/22 02:50:15;;;;;;;9.68;6.85;;;-1.30;99.90;;;;;;5121148;27;20050;-72
2021/12/22 02:53:00;;;;;;;9.40;8.48;;;-1.30;99.90;;;;;;5143544;27;20043;-72
2021/12/22 02:55:31;;;;;;;10.38;8.10;;;-1.40;99.90;;;;;;5130787;27;20054;-72
2021/12/22 02:58:01;;;;;;;8.60;7.63;;;-1.40;99.90;;;;;;5143811;27;20431;-72
2021/12/22 03:05:22;;;;;;;13.90;7.97;;;-1.30;99.90;;;;;;5125339;27;20068;-73
2021/12/22 03:07:48;;;;;;;13.48;6.68;;;-1.40;99.90;;;;;;5143319;27;20078;-73
2021/12/22 03:10:18;;;;;;;11.10;7.68;;;-1.40;99.90;;;;;;5122243;27;20050;-73
2021/12/22 03:12:47;;;;;;;11.68;7.13;;;-1.30;99.90;;;;;;5142891;27;20841;-73
2021/12/22 03:15:12;;;;;;;12.73;7.50;;;-1.30;99.90;;;;;;5124826;27;20119;-73
2021/12/22 03:17:39;;;;;;;8.38;6.90;;;-1.30;99.90;;;;;;5148108;27;20219;-74
2021/12/22 03:20:08;;;;;;;12.15;7.93;;;-1.30;99.90;;;;;;5124469;27;20043;-73
2021/12/22 03:22:35;;;;;;;14.55;8.40;;;-1.30;99.90;;;;;;5124706;27;20498;-72
2021/12/22 03:25:01;;;;;;;12.27;8.27;;;-1.40;99.90;;;;;;5125132;27;20043;-73
2021/12/22 03:27:27;;;;;;;13.38;7.35;;;-1.40;99.90;;;;;;5124394;27;20138;-73
2021/12/22 03:29:53;;;;;;;11.32;8.48;;;-1.40;99.90;;;;;;5124861;27;20136;-74
2021/12/22 03:32:19;;;;;;;11.43;8.27;;;-1.40;99.90;;;;;;5143963;27;20038;-74
2021/12/22 03:34:44;;;;;;;8.93;7.78;;;-1.40;99.90;;;;;;5129791;27;20715;-74
2021/12/22 03:37:11;;;;;;;10.48;8.27;;;-1.40;99.90;;;;;;5124387;27;20154;-74
2021/12/22 03:39:38;;;;;;;13.75;7.65;;;-1.40;99.90;;;;;;5123937;27;20042;-74
2021/12/22 03:42:06;;;;;;;12.10;7.60;;;-1.50;99.90;;;;;;5142352;27;20744;-74
2021/12/22 03:44:32;;;;;;;11.98;9.45;;;-1.50;99.90;;;;;;5124125;27;20050;-74
2021/12/22 03:46:59;;;;;;;17.35;8.65;;;-1.50;99.90;;;;;;5124729;27;20046;-74
2021/12/22 03:49:26;;;;;;;10.40;8.25;;;-1.50;99.90;;;;;;5121371;27;20047;-75
2021/12/22 03:51:51;;;;;;;10.45;7.90;;;-1.50;99.90;;;;;;5123091;27;20043;-75
2021/12/22 03:54:17;;;;;;;9.20;7.28;;;-1.40;99.90;;;;;;5122129;27;20046;-75
2021/12/22 03:56:42;;;;;;;13.25;8.57;;;-1.50;99.90;;;;;;5155514;27;20046;-75
2021/12/22 03:59:09;;;;;;;11.13;6.57;;;-1.40;99.90;;;;;;5145422;27;20122;-76
2021/12/22 04:01:35;;;;;;;11.65;7.95;;;-1.40;99.90;;;;;;5123279;27;20123;-76
2021/12/22 04:04:06;;;;;;;10.43;7.72;;;-1.40;99.90;;;;;;5143901;27;20476;-76
2021/12/22 04:06:32;;;;;;;12.52;7.68;;;-1.40;99.90;;;;;;5115790;27;20050;-76
2021/12/22 04:08:57;;;;;;;13.57;7.28;;;-1.40;99.90;;;;;;5140087;27;20043;-77
2021/12/22 04:11:23;;;;;;;13.10;8.07;;;-1.50;99.90;;;;;;5147908;27;20046;-77
2021/12/22 04:13:49;;;;;;;10.57;7.25;;;-1.50;99.90;;;;;;5123842;27;20046;-77
2021/12/22 04:16:14;;;;;;;12.80;8.00;;;-1.50;99.90;;;;;;5142373;27;20082;-78
2021/12/22 04:18:40;;;;;;;11.70;8.23;;;-1.50;99.90;;;;;;5142359;27;20057;-78
2021/12/22 04:21:06;;;;;;;12.23;7.68;;;-1.50;99.90;;;;;;5143024;27;20039;-78
2021/12/22 04:23:31;;;;;;;11.55;8.38;;;-1.50;99.90;;;;;;5123178;27;20481;-78
2021/12/22 04:25:57;;;;;;;13.52;10.30;;;-1.50;99.90;;;;;;5142772;27;20042;-79
2021/12/22 04:28:23;;;;;;;12.60;8.13;;;-1.50;99.90;;;;;;5142658;27;20059;-79
2021/12/22 04:30:50;;;;;;;14.00;8.35;;;-1.50;99.90;;;;;;5123665;27;20061;-79
2021/12/22 04:33:17;;;;;;;11.73;9.15;;;-1.50;99.90;;;;;;5142847;27;20111;-80
2021/12/22 04:35:43;;;;;;;11.27;7.68;;;-1.50;99.90;;;;;;5123958;27;20050;-80
2021/12/22 04:38:08;;;;;;;11.52;7.55;;;-1.50;99.90;;;;;;5142358;27;20047;-80
2021/12/22 04:40:34;;;;;;;17.45;10.40;;;-1.50;99.90;;;;;;5123635;27;20046;-80
2021/12/22 04:43:00;;;;;;;11.18;8.50;;;-1.50;99.90;;;;;;5124359;27;20070;-80
2021/12/22 04:45:26;;;;;;;11.20;8.50;;;-1.50;99.90;;;;;;5123805;27;20103;-81
2021/12/22 04:47:51;;;;;;;9.90;8.82;;;-1.60;99.90;;;;;;5123949;27;20057;-84
2021/12/22 04:50:20;;;;;;;13.10;8.88;;;-1.60;99.90;;;;;;5142973;27;20858;-82
2021/12/22 04:55:18;;;;;;;12.13;9.73;;;-1.60;99.90;;;;;;5124080;27;20807;-84
2021/12/22 04:57:44;;;;;;;17.08;8.32;;;-1.60;99.90;;;;;;5141779;27;20046;-84
2021/12/22 05:00:11;;;;;;;17.02;10.23;;;-1.70;99.90;;;;;;5123889;27;20421;-85
2021/12/22 05:02:37;;;;;;;10.50;8.95;;;-1.70;99.90;;;;;;5124667;27;20070;-86
2021/12/22 05:05:03;;;;;;;17.98;9.68;;;-1.60;99.90;;;;;;5143474;27;20489;-86
2021/12/22 05:07:29;;;;;;;12.38;8.90;;;-1.60;99.90;;;;;;5142868;27;20116;-86
2021/12/22 05:09:55;;;;;;;12.98;8.27;;;-1.60;99.90;;;;;;5122198;27;20054;-86
2021/12/22 05:12:20;;;;;;;11.48;8.85;;;-1.60;99.90;;;;;;5141047;27;20086;-86
2021/12/22 05:14:50;;;;;;;15.63;10.27;;;-1.60;99.90;;;;;;5121736;27;20035;-86
2021/12/22 05:17:25;;;;;;;15.07;9.70;;;-1.60;99.90;;;;;;5141680;27;20066;-85
2021/12/22 05:19:51;;;;;;;15.77;10.25;;;-1.60;99.90;;;;;;5122804;27;20603;-84
2021/12/22 05:22:16;;;;;;;12.35;9.55;;;-1.60;99.90;;;;;;5122495;27;20042;-84
2021/12/22 05:24:42;;;;;;;16.55;9.63;;;-1.70;99.90;;;;;;5122904;27;20054;-84
2021/12/22 05:27:11;;;;;;;11.35;9.30;;;-1.70;99.90;;;;;;5141047;27;20042;-83
2021/12/22 05:29:37;;;;;;;12.30;9.63;;;-1.70;99.90;;;;;;5121943;27;20046;-82
2021/12/22 05:32:04;;;;;;;13.40;8.73;;;-1.70;99.90;;;;;;5141061;27;20533;-82
2021/12/22 05:34:30;;;;;;;16.42;10.23;;;-1.70;99.90;;;;;;5140420;27;20042;-81
2021/12/22 05:36:55;;;;;;;12.75;9.50;;;-1.70;99.90;;;;;;5122163;27;20043;-80
2021/12/22 05:39:21;;;;;;;15.52;10.10;;;-1.70;99.90;;;;;;5122312;27;20097;-80
2021/12/22 05:41:47;;;;;;;13.73;9.18;;;-1.70;99.90;;;;;;5140044;27;20470;-80
2021/12/22 05:44:13;;;;;;;17.08;9.60;;;-1.70;99.90;;;;;;5122053;27;20042;-79
2021/12/22 05:46:38;;;;;;;12.02;8.95;;;-1.70;99.90;;;;;;5133040;27;20047;-79
2021/12/22 05:49:04;;;;;;;14.45;9.75;;;-1.80;99.90;;;;;;5121580;27;20054;-79
2021/12/22 05:51:33;;;;;;;14.77;9.95;;;-1.70;99.90;;;;;;5122535;27;20133;-78
2021/12/22 05:53:58;;;;;;;14.48;10.05;;;-1.80;99.90;;;;;;5139868;27;20078;-78
2021/12/22 05:56:26;;;;;;;17.25;10.10;;;-1.80;99.90;;;;;;5112376;27;20129;-78
2021/12/22 05:58:53;;;;;;;15.35;10.60;;;-1.80;99.90;;;;;;5118459;27;20071;-77
2021/12/22 06:01:18;;;;;;;13.30;9.13;;;-1.90;99.90;;;;;;5118975;27;20076;-76
2021/12/22 06:03:44;;;;;;;18.02;9.63;;;-1.90;99.90;;;;;;5139498;27;20888;-76
2021/12/22 06:06:11;;;;;;;13.80;10.07;;;-1.90;99.90;;;;;;5119108;27;20085;-76
2021/12/22 06:08:36;;;;;;;15.25;9.30;;;-1.90;99.90;;;;;;5135264;27;20047;-77
2021/12/22 06:11:02;;;;;;;14.27;8.45;;;-1.20;99.90;;;;;;5117774;27;20099;-76
2021/12/22 06:13:27;;;;;;;14.65;10.05;;;-1.90;99.90;;;;;;5117755;27;20614;-76
2021/12/22 06:15:53;;;;;;;13.95;10.52;;;-1.90;99.90;;;;;;5136107;27;20058;-76
2021/12/22 06:18:18;;;;;;;19.95;11.10;;;-1.80;99.90;;;;;;5136855;27;20107;-76
2021/12/22 06:20:44;;;;;;;12.25;10.23;;;-1.80;99.90;;;;;;5116952;27;20046;-76
2021/12/22 06:23:11;;;;;;;20.55;12.45;;;-1.80;99.90;;;;;;5117918;27;20057;-76
2021/12/22 06:25:37;;;;;;;11.90;8.23;;;-1.80;99.90;;;;;;5116795;27;20050;-75
2021/12/22 06:28:03;;;;;;;15.63;9.30;;;-1.80;99.90;;;;;;5118726;27;20131;-75
2021/12/22 06:30:28;;;;;;;17.33;11.15;;;-1.70;99.90;;;;;;5117963;27;20050;-75
2021/12/22 06:32:54;;;;;;;16.83;10.32;;;-1.70;99.90;;;;;;5118861;27;20047;-75
2021/12/22 06:35:20;;;;;;;18.27;11.32;;;-1.70;99.90;;;;;;5136872;27;20039;-75
2021/12/22 06:37:48;;;;;;;14.40;9.15;;;-1.70;99.90;;;;;;5136108;27;20105;-75
2021/12/22 06:40:14;;;;;;;14.40;9.52;;;-1.70;99.90;;;;;;5118345;27;20049;-75
2021/12/22 06:42:40;;;;;;;18.77;10.32;;;-1.70;99.90;;;;;;5118663;27;20129;-74
2021/12/22 06:45:08;;;;;;;16.60;10.13;;;-1.70;99.90;;;;;;5117639;27;20108;-75
2021/12/22 06:47:34;;;;;;;17.67;11.63;;;-1.70;99.90;;;;;;5117840;27;20042;-74
2021/12/22 06:49:59;;;;;;;19.52;9.73;;;-1.70;99.90;;;;;;5118639;27;20070;-74
2021/12/22 06:52:25;;;;;;;15.13;10.93;;;-1.60;99.90;;;;;;5118793;27;20046;-74
2021/12/22 06:54:51;;;;;;;12.18;9.05;;;-1.60;99.90;;;;;;5137145;27;20047;-74
2021/12/22 06:57:20;;;;;;;16.60;11.95;;;-1.60;99.90;;;;;;5131414;27;20146;-74
2021/12/22 06:59:46;;;;;;;15.40;10.73;;;-1.60;99.90;;;;;;5136331;27;20042;-73
2021/12/22 07:02:11;;;;;;;14.98;8.98;;;-1.60;99.90;;;;;;5120854;27;20043;-73
2021/12/22 07:04:37;;;;;;;20.30;11.30;;;-1.60;99.90;;;;;;5137035;27;20043;-73
2021/12/22 07:07:03;;;;;;;15.15;9.80;;;-1.60;99.90;;;;;;5118447;27;20145;-73
2021/12/22 07:09:28;;;;;;;17.10;10.68;;;-1.60;99.90;;;;;;5117536;27;20090;-73
2021/12/22 07:11:54;;;;;;;18.25;11.07;;;-1.60;99.90;;;;;;5115958;27;20054;-73
2021/12/22 07:14:20;;;;;;;11.00;8.93;;;-1.60;99.90;;;;;;5135254;27;20671;-73
2021/12/22 07:16:46;;;;;;;15.05;10.50;;;-1.50;99.90;;;;;;5117917;27;20559;-72
2021/12/22 07:19:12;;;;;;;15.77;10.07;;;-1.50;99.90;;;;;;5135677;27;20830;-72
2021/12/22 07:21:38;;;;;;;18.45;10.95;;;-1.60;99.90;;;;;;5134212;27;20043;-71
2021/12/22 07:24:05;;;;;;;13.75;9.82;;;-1.50;99.90;;;;;;5118307;27;20960;-72
2021/12/22 07:26:30;;;;;;;15.57;10.05;;;-1.60;99.90;;;;;;4758499;27;10000623;-71
2021/12/22 07:28:56;;;;;;;16.02;9.52;;;-0.70;99.90;;;;;;4421078;27;10000775;-71
2021/12/22 07:31:21;;;;;;;12.27;8.93;;;-1.50;99.90;;;;;;5114559;27;20838;-71
2021/12/22 07:33:55;;;;;;;14.52;9.43;;;-1.50;99.90;;;;;;5113915;27;20122;-72
2021/12/22 07:36:20;;;;;;;17.67;10.35;;;-1.50;99.90;;;;;;5133926;27;20082;-71
2021/12/22 07:38:58;;;;;;;13.50;9.65;;;-1.50;99.90;;;;;;5118521;27;20185;-71
2021/12/22 07:41:24;;;;;;;17.55;10.32;;;-1.50;99.90;;;;;;5116801;27;20892;-71
2021/12/22 07:43:49;;;;;;;15.68;9.15;;;-1.50;99.90;;;;;;5118363;27;20087;-70
2021/12/22 07:46:15;;;;;;;19.15;10.20;;;-1.50;99.90;;;;;;5117764;27;20077;-70
2021/12/22 07:48:41;;;;;;;16.30;9.80;;;-1.50;99.90;;;;;;5118030;27;20685;-71
2021/12/22 07:51:07;;;;;;;14.95;10.82;;;-1.50;99.90;;;;;;5117747;27;20051;-70
2021/12/22 07:53:32;;;;;;;17.27;9.57;;;-1.50;99.90;;;;;;5116885;27;20035;-70
2021/12/22 07:55:58;;;;;;;12.32;9.00;;;-1.50;99.90;;;;;;5117856;27;20064;-70
2021/12/22 07:58:24;;;;;;;16.02;10.02;;;-1.50;99.90;;;;;;5117737;27;20087;-71
2021/12/22 08:00:51;;;;;;;17.77;10.63;;;-1.50;99.90;;;;;;5117214;27;20123;-70
2021/12/22 08:03:17;;;;;;;12.23;10.10;;;-0.90;99.90;;;;;;5117882;27;20050;-70
2021/12/22 08:05:42;;;;;;;15.48;11.00;;;-1.50;99.90;;;;;;5135557;27;20305;-70
2021/12/22 08:08:08;;;;;;;15.07;10.82;;;-1.50;99.90;;;;;;5133700;27;20576;-70
2021/12/22 08:19:04;;;;;;;12.43;8.75;;;-1.90;99.90;;;;;;4988197;27;1875540;-71
2021/12/22 08:21:29;;;;;;;13.52;9.35;;;-1.30;99.90;;;;;;5019563;28;20053;-71
2021/12/22 08:23:55;;;;;;;16.70;9.85;;;-1.30;99.90;;;;;;5017110;28;20825;-71
2021/12/22 08:26:20;;;;;;;17.35;11.18;;;-1.20;99.90;;;;;;5020275;28;20741;-70
2021/12/22 08:28:49;;;;;;;16.05;10.52;;;-1.20;99.90;;;;;;5016278;28;20495;-71
2021/12/22 08:31:14;;;;;;;17.27;10.20;;;-1.20;99.90;;;;;;5018987;28;20049;-71
2021/12/22 08:33:45;;;;;;;12.98;9.73;;;-1.10;99.90;;;;;;5015586;28;20837;-70
2021/12/22 08:38:55;;;;;;;15.63;10.10;;;-1.10;99.90;;;;;;5040849;28;20567;-70
2021/12/22 08:41:24;;;;;;;15.50;10.20;;;-1.00;99.90;;;;;;5021744;28;20037;-70
2021/12/22 08:43:51;;;;;;;14.52;11.18;;;-1.00;99.90;;;;;;5019348;28;20048;-70
2021/12/22 08:46:17;;;;;;;15.50;10.38;;;-0.90;99.90;;;;;;5032117;28;20055;-70
2021/12/22 08:48:43;;;;;;;14.32;10.20;;;-0.90;99.90;;;;;;5033371;28;20053;-63
2021/12/22 08:51:09;;;;;;;17.60;11.50;;;-0.80;99.90;;;;;;5036867;28;20780;-70
2021/12/22 08:53:35;;;;;;;14.73;9.90;;;-0.80;99.90;;;;;;5015251;28;20037;-70
2021/12/22 08:56:00;;;;;;;13.95;10.13;;;-0.80;99.90;;;;;;5037286;28;20107;-70
2021/12/22 08:58:26;;;;;;;17.38;11.23;;;-0.80;99.90;;;;;;5034425;28;20049;-70
2021/12/22 09:00:52;;;;;;;17.30;10.00;;;-0.70;99.90;;;;;;5019535;28;20056;-70
2021/12/22 09:03:17;;;;;;;13.70;10.20;;;-0.70;99.90;;;;;;5029411;28;20056;-70
2021/12/22 09:05:43;;;;;;;16.52;9.13;;;-0.60;99.90;;;;;;4671010;28;10000640;-71
2021/12/22 09:08:08;;;;;;;19.38;11.02;;;-0.50;99.90;;;;;;5033266;28;20067;-69
2021/12/22 09:10:34;;;;;;;11.57;8.48;;;-0.50;99.90;;;;;;5030793;28;20049;-70
2021/12/22 09:13:00;;;;;;;14.65;9.77;;;-0.50;99.90;;;;;;5037428;28;20044;-69
2021/12/22 09:15:25;;;;;;;14.82;10.98;;;-0.40;99.90;;;;;;5012041;28;20111;-70
2021/12/22 09:17:51;;;;;;;18.35;9.57;;;-0.40;99.90;;;;;;5028794;28;20176;-70
2021/12/22 09:20:17;;;;;;;16.10;9.70;;;-0.30;99.90;;;;;;5011661;28;20523;-70
2021/12/22 09:22:42;;;;;;;13.00;9.35;;;-0.30;99.90;;;;;;5029709;28;20122;-69
2021/12/22 09:25:09;;;;;;;18.15;11.00;;;-0.30;99.90;;;;;;5011392;28;20045;-69
2021/12/22 09:27:35;;;;;;;19.13;10.50;;;-0.30;99.90;;;;;;5026075;28;20650;-69
2021/12/22 09:30:00;;;;;;;16.60;10.43;;;-0.30;99.90;;;;;;5025370;28;20045;-69
2021/12/22 09:32:26;;;;;;;15.25;10.65;;;-0.30;99.90;;;;;;4999410;28;20037;-69
2021/12/22 09:34:52;;;;;;;14.85;9.63;;;-0.30;99.90;;;;;;5006128;28;20102;-69
2021/12/22 09:37:18;;;;;;;14.45;10.40;;;-0.30;99.90;;;;;;5020273;28;20952;-69
2021/12/22 09:39:44;;;;;;;16.02;10.43;;;-0.20;99.90;;;;;;5018468;28;20148;-69
2021/12/22 09:42:10;;;;;;;17.40;10.48;;;-0.10;99.90;;;;;;4999702;28;20045;-69
2021/12/22 09:44:43;;;;;;;16.30;11.18;;;0.00;99.90;;;;;;5023830;28;20125;-69
2021/12/22 09:47:10;;;;;;;18.05;9.95;;;0.10;99.90;;;;;;5004091;28;20933;-69
2021/12/22 09:52:23;;;;;;;17.27;10.35;;;0.20;99.90;;;;;;5017291;28;20053;-69
2021/12/22 09:54:52;;;;;;;15.50;10.43;;;0.30;99.90;;;;;;5018561;28;20041;-69
2021/12/22 09:57:19;;;;;;;15.70;9.13;;;0.30;99.90;;;;;;4995577;28;20055;-69
2021/12/22 09:59:50;;;;;;;15.60;9.98;;;1.00;99.90;;;;;;5018982;28;20053;-68
2021/12/22 10:02:18;;;;;;;16.75;10.07;;;0.40;99.90;;;;;;5016733;28;20049;-70
2021/12/22 10:04:45;;;;;;;14.43;8.85;;;0.40;99.90;;;;;;5004944;28;20122;-69
2021/12/22 10:07:17;;;;;;;16.92;9.45;;;0.40;99.90;;;;;;5000408;28;20111;-69
2021/12/22 10:09:44;;;;;;;19.40;12.05;;;0.40;99.90;;;;;;4999580;28;20045;-69
2021/12/22 10:12:23;;;;;;;13.48;9.27;;;0.40;99.90;;;;;;5002000;28;20053;-69
2021/12/22 10:14:53;;;;;;;11.43;7.80;;;0.40;99.90;;;;;;5000959;28;20056;-69
2021/12/22 10:17:44;;;;;;;10.43;8.93;;;0.40;99.90;;;;;;4998707;28;20046;-70
2021/12/22 10:20:12;;;;;;;10.30;8.98;;;0.30;99.90;;;;;;5017988;28;20053;-69
2021/12/22 10:22:44;;;;;;;17.10;10.68;;;0.40;99.90;;;;;;5018094;28;20037;-70
2021/12/22 10:25:17;;;;;;;10.85;8.98;;;0.40;99.90;;;;;;4992225;28;20084;-72
2021/12/22 10:27:46;;;;;;;13.70;7.63;;;0.50;99.90;;;;;;5000202;28;20080;-72
2021/12/22 10:30:23;;;;;;;11.32;8.93;;;0.50;99.90;;;;;;5017744;28;20107;-70
2021/12/22 10:32:49;;;;;;;12.88;9.05;;;0.50;99.90;;;;;;4999171;28;20057;-69
2021/12/22 10:35:15;;;;;;;13.30;9.23;;;0.50;99.90;;;;;;5016652;28;20789;-69
2021/12/22 10:37:43;;;;;;;15.63;8.02;;;0.50;99.90;;;;;;5000155;28;20045;-68
2021/12/22 10:40:28;;;;;;;18.45;9.43;;;0.60;99.90;;;;;;5001060;28;20488;-69
2021/12/22 10:42:54;;;;;;;14.63;9.52;;;0.60;99.90;;;;;;5000037;28;20053;-68
2021/12/22 10:45:25;;;;;;;14.02;8.07;;;0.60;99.90;;;;;;5019842;28;20049;-69
2021/12/22 10:50:40;;;;;;;18.08;9.05;;;0.60;99.90;;;;;;5017943;28;20889;-68
2021/12/22 10:53:07;;;;;;;9.23;7.97;;;0.60;99.90;;;;;;5018604;28;20095;-69
2021/12/22 10:55:41;;;;;;;15.50;10.98;;;0.70;99.90;;;;;;5019266;28;20580;-69
2021/12/22 10:58:25;;;;;;;10.90;7.90;;;0.60;99.90;;;;;;5018559;28;20160;-68
2021/12/22 11:01:17;;;;;;;14.93;9.65;;;0.60;99.90;;;;;;5019417;28;20049;-68
2021/12/22 11:03:48;;;;;;;10.93;7.35;;;0.60;99.90;;;;;;5018233;28;20584;-68
2021/12/22 11:06:23;;;;;;;11.88;8.95;;;0.60;99.90;;;;;;5019066;28;20278;-69
2021/12/22 11:09:00;;;;;;;12.77;7.78;;;0.50;99.90;;;;;;5001755;28;20424;-68
2021/12/22 11:11:36;;;;;;;13.35;8.95;;;0.60;99.90;;;;;;5017544;28;20041;-68
2021/12/22 11:14:09;;;;;;;12.77;9.32;;;0.60;99.90;;;;;;4999961;28;20053;-68
2021/12/22 11:17:10;;;;;;;14.88;8.70;;;0.70;99.90;;;;;;4999874;28;20366;-68
2021/12/22 11:19:47;;;;;;;12.73;8.50;;;0.70;99.90;;;;;;4999365;28;20089;-68
2021/12/22 11:22:15;;;;;;;11.85;8.13;;;0.70;99.90;;;;;;5000062;28;20053;-69
2021/12/22 11:24:50;;;;;;;12.23;8.40;;;0.80;99.90;;;;;;5000335;28;20060;-68
2021/12/22 11:27:18;;;;;;;13.95;8.68;;;0.80;99.90;;;;;;5019231;28;20061;-68
2021/12/22 11:29:47;;;;;;;14.35;8.80;;;0.80;99.90;;;;;;5019319;28;20124;-68
2021/12/22 11:32:17;;;;;;;13.48;9.32;;;0.80;99.90;;;;;;5000596;28;20049;-68
2021/12/22 11:34:48;;;;;;;16.75;9.07;;;0.80;99.90;;;;;;5001304;28;20064;-68
2021/12/22 11:37:14;;;;;;;16.63;10.23;;;0.80;99.90;;;;;;5019373;28;20081;-68
2021/12/22 11:39:41;;;;;;;12.30;8.00;;;0.80;99.90;;;;;;5001017;28;20144;-68
2021/12/22 11:42:09;;;;;;;11.55;8.60;;;0.80;99.90;;;;;;5001117;28;20049;-68
2021/12/22 11:44:36;;;;;;;10.85;8.35;;;0.80;99.90;;;;;;5019270;28;20057;-68
2021/12/22 11:47:09;;;;;;;9.35;8.38;;;0.80;99.90;;;;;;5018682;28;20527;-68
2021/12/22 11:49:37;;;;;;;15.20;9.23;;;0.80;99.90;;;;;;5001291;28;20757;-68
2021/12/22 11:52:26;;;;;;;13.52;8.70;;;0.90;99.90;;;;;;5018870;28;20057;-68
2021/12/22 11:55:14;;;;;;;11.45;8.82;;;0.90;99.90;;;;;;5000831;28;20061;-68
2021/12/22 11:57:40;;;;;;;14.50;8.30;;;0.90;99.90;;;;;;5000707;28;20138;-68
2021/12/22 12:00:32;;;;;;;10.13;8.07;;;0.90;99.90;;;;;;5000469;28;21001;-68
2021/12/22 12:03:18;;;;;;;11.10;8.60;;;0.90;99.90;;;;;;4996481;28;20054;-68
2021/12/22 12:06:00;;;;;;;13.45;9.18;;;0.90;99.90;;;;;;5000495;28;20054;-68
2021/12/22 12:08:37;;;;;;;13.88;8.70;;;1.00;99.90;;;;;;5017140;28;20048;-70
2021/12/22 12:11:05;;;;;;;13.15;8.00;;;1.00;99.90;;;;;;5011567;28;20118;-69
2021/12/22 12:13:36;;;;;;;10.77;8.35;;;1.00;99.90;;;;;;4993827;28;20049;-68
2021/12/22 12:21:52;;;;;;;16.92;7.93;;;0.90;99.90;;;;;;4997047;28;20088;-69
2021/12/22 12:24:40;;;;;;;18.10;9.20;;;0.90;99.90;;;;;;4998513;28;20697;-69
2021/12/22 12:27:47;;;;;;;12.15;8.27;;;0.90;99.90;;;;;;4996426;28;20491;-69
2021/12/22 12:30:40;;;;;;;10.07;7.75;;;0.90;99.90;;;;;;4900088;29;20598;-69
2021/12/22 12:33:07;;;;;;;;;;;0.90;99.90;;;;;;4900590;29;20060;-68
2021/12/22 12:35:35;;;;;;;13.75;8.52;;;0.90;99.90;;;;;;4965322;28;20031;-68
2021/12/22 12:38:08;;;;;;;14.30;9.18;;;0.90;99.90;;;;;;5027134;28;20051;-69
2021/12/22 12:41:05;;;;;;;14.57;9.48;;;0.90;99.90;;;;;;5021036;28;20057;-68
2021/12/22 12:43:47;;;;;;;11.88;7.75;;;0.90;99.90;;;;;;5022684;28;20053;-69
2021/12/22 12:46:27;;;;;;;11.82;8.90;;;1.00;99.90;;;;;;5021607;28;20074;-69
2021/12/22 12:49:06;;;;;;;9.18;8.27;;;1.00;99.90;;;;;;5020758;28;20064;-69
2021/12/22 12:51:49;;;;;;;11.77;8.85;;;1.00;99.90;;;;;;5002723;28;20045;-69
2021/12/22 12:54:18;;;;;;;15.73;8.05;;;1.00;99.90;;;;;;5021890;28;20057;-69
2021/12/22 12:56:45;;;;;;;13.95;9.05;;;1.00;99.90;;;;;;5024830;28;20041;-69
2021/12/22 12:59:25;;;;;;;15.32;8.68;;;1.00;99.90;;;;;;5020853;28;20055;-68
2021/12/22 13:01:50;;;;;;;11.70;8.25;;;1.00;99.90;;;;;;5017122;28;20052;-68
2021/12/22 13:04:40;;;;;;;11.88;8.13;;;1.00;99.90;;;;;;5001807;28;20045;-68
2021/12/22 13:07:09;;;;;;;13.15;8.45;;;1.00;99.90;;;;;;5003781;28;20056;-68
2021/12/22 13:09:44;;;;;;;11.88;8.80;;;1.00;99.90;;;;;;5000765;28;20477;-68
2021/12/22 13:17:48;;;;;;;16.27;9.18;;;0.90;99.90;;;;;;5008075;28;20623;-68
2021/12/22 13:20:16;;;;;;;14.57;9.23;;;1.00;99.90;;;;;;5007112;28;20052;-68
2021/12/22 13:22:46;;;;;;;16.17;9.90;;;1.00;99.90;;;;;;5003587;28;20049;-68
2021/12/22 13:25:27;;;;;;;14.80;8.73;;;0.90;99.90;;;;;;5007596;28;20053;-68
2021/12/22 13:27:57;;;;;;;11.13;8.40;;;0.90;99.90;;;;;;5002693;28;20092;-68
2021/12/22 13:30:24;;;;;;;12.75;10.98;;;0.90;99.90;;;;;;5019560;28;20057;-68
2021/12/22 13:33:05;;;;;;;15.00;9.25;;;0.80;99.90;;;;;;5008475;28;20048;-68